Alt de Mayaguez, Puerto Rico
Current Conditions -  °F | °C
As of 11:50 PM on Friday 19 Dec 2014 (Local Time) from TJBQ Reporting Station
Clear Clear  
Wind Chill: 22°   Ceiling: Unl
Heat Index: 22°   Visibility: 10mi
Dew Point: 19°   Wind: 8mph
Humidity: 83%   Direction: 110°ESE
Pressure: 30.02"   Gusts: NA
Location:  18.203°N, 67.14°W
Report Text: TJBQ 200350Z 11007KT 10SM SKC 22/19 A3002 RMK RWY08 ATIS Z
Loading
Personal Weather Stations






























Interactive Weather Map New forecast layout! Learn more

10-Day Weather Forecast

Advertisements
Track Severe Weather on mobile